Time,TemperatureF,DewpointF,PressureIn,WindDirection,WindDirectionDegrees,WindSpeedMPH,WindSpeedGustMPH,Humidity,HourlyPrecipIn,Conditions,Clouds,dailyrainin,SolarRadiationWatts/m^2,SoftwareType,DateUTC
2013-03-16 00:02:00,13.0,10.0,-100.00,West,260,2.0,6.0,87,0.00,,,0.21,0.700000,,2013-03-16 08:02:00,
2013-03-16 00:12:00,13.0,10.0,-100.00,West,260,2.0,6.0,87,0.00,,,0.21,0.700000,,2013-03-16 08:12:00,
2013-03-16 00:22:00,13.0,10.0,-100.00,West,260,2.0,6.0,87,0.00,,,0.21,0.700000,,2013-03-16 08:22:00,
2013-03-16 00:32:00,13.0,10.0,-100.00,West,260,2.0,6.0,87,0.00,,,0.21,0.700000,,2013-03-16 08:32:00,
2013-03-16 00:41:00,13.0,10.0,-100.00,West,260,2.0,6.0,87,0.00,,,0.21,0.700000,,2013-03-16 08:41:00,
2013-03-16 01:01:00,13.0,10.0,-100.00,West,263,3.0,6.0,87,0.00,,,0.21,0.700000,,2013-03-16 09:01:00,
2013-03-16 01:12:00,13.0,10.0,-100.00,West,263,3.0,6.0,87,0.00,,,0.21,0.700000,,2013-03-16 09:12:00,
2013-03-16 01:22:00,13.0,10.0,-100.00,West,263,3.0,6.0,87,0.00,,,0.21,0.700000,,2013-03-16 09:22:00,
2013-03-16 01:32:00,13.0,10.0,-100.00,West,263,3.0,6.0,87,0.00,,,0.21,0.700000,,2013-03-16 09:32:00,
2013-03-16 01:42:00,13.0,10.0,-100.00,West,263,3.0,6.0,87,0.00,,,0.21,0.700000,,2013-03-16 09:42:00,
2013-03-16 02:03:00,12.0,9.0,-100.00,NNW,332,0.0,5.0,87,0.00,,,0.21,0.700000,,2013-03-16 10:03:00,
2013-03-16 02:12:00,12.0,9.0,-100.00,NNW,332,0.0,5.0,87,0.00,,,0.21,0.700000,,2013-03-16 10:12:00,
2013-03-16 02:22:00,12.0,9.0,-100.00,NNW,332,0.0,5.0,87,0.00,,,0.21,0.700000,,2013-03-16 10:22:00,
2013-03-16 02:32:00,12.0,9.0,-100.00,NNW,332,0.0,5.0,87,0.00,,,0.21,0.700000,,2013-03-16 10:32:00,
2013-03-16 02:42:00,12.0,9.0,-100.00,NNW,332,0.0,5.0,87,0.00,,,0.21,0.700000,,2013-03-16 10:42:00,
2013-03-16 03:03:00,13.0,9.0,-100.00,WNW,290,3.0,3.0,87,0.00,,,0.21,0.700000,,2013-03-16 11:03:00,
2013-03-16 03:12:00,13.0,9.0,-100.00,WNW,290,3.0,3.0,87,0.00,,,0.21,0.700000,,2013-03-16 11:12:00,
2013-03-16 03:22:00,13.0,9.0,-100.00,WNW,290,3.0,3.0,87,0.00,,,0.21,0.700000,,2013-03-16 11:22:00,
2013-03-16 03:32:00,13.0,9.0,-100.00,WNW,290,3.0,3.0,87,0.00,,,0.21,0.700000,,2013-03-16 11:32:00,
2013-03-16 03:42:00,13.0,9.0,-100.00,WNW,290,3.0,3.0,87,0.00,,,0.21,0.700000,,2013-03-16 11:42:00,
2013-03-16 04:02:00,12.0,9.0,-100.00,West,271,4.0,4.0,86,0.00,,,0.21,0.700000,,2013-03-16 12:02:00,
2013-03-16 04:12:00,12.0,9.0,-100.00,West,271,4.0,4.0,86,0.00,,,0.21,0.700000,,2013-03-16 12:12:00,
2013-03-16 04:22:00,12.0,9.0,-100.00,West,271,4.0,4.0,86,0.00,,,0.21,0.700000,,2013-03-16 12:22:00,
2013-03-16 04:32:00,12.0,9.0,-100.00,West,271,4.0,4.0,86,0.00,,,0.21,0.700000,,2013-03-16 12:32:00,
2013-03-16 04:42:00,12.0,9.0,-100.00,West,271,4.0,4.0,86,0.00,,,0.21,0.700000,,2013-03-16 12:42:00,
2013-03-16 05:02:00,12.0,9.0,-100.00,West,278,3.0,6.0,86,0.00,,,0.21,0.700000,,2013-03-16 13:02:00,
2013-03-16 05:12:00,12.0,9.0,-100.00,West,278,3.0,6.0,86,0.00,,,0.21,0.700000,,2013-03-16 13:12:00,
2013-03-16 05:22:00,12.0,9.0,-100.00,West,278,3.0,6.0,86,0.00,,,0.21,0.700000,,2013-03-16 13:22:00,
2013-03-16 05:32:00,12.0,9.0,-100.00,West,278,3.0,6.0,86,0.00,,,0.21,0.700000,,2013-03-16 13:32:00,
2013-03-16 05:41:00,12.0,9.0,-100.00,West,278,3.0,6.0,86,0.00,,,0.21,0.700000,,2013-03-16 13:41:00,
2013-03-16 06:02:00,12.0,9.0,-100.00,West,278,4.0,5.0,86,0.00,,,0.21,0.700000,,2013-03-16 14:02:00,
2013-03-16 06:12:00,12.0,9.0,-100.00,West,278,4.0,5.0,86,0.00,,,0.21,0.700000,,2013-03-16 14:12:00,
2013-03-16 06:22:00,12.0,9.0,-100.00,West,278,4.0,5.0,86,0.00,,,0.21,0.700000,,2013-03-16 14:22:00,
2013-03-16 06:32:00,12.0,9.0,-100.00,West,278,4.0,5.0,86,0.00,,,0.21,0.700000,,2013-03-16 14:32:00,
2013-03-16 06:42:00,12.0,9.0,-100.00,West,278,4.0,5.0,86,0.00,,,0.21,0.700000,,2013-03-16 14:42:00,
2013-03-16 07:02:00,12.0,9.0,-100.00,WNW,287,1.0,5.0,86,0.00,,,0.21,0.700000,,2013-03-16 15:02:00,
2013-03-16 07:12:00,12.0,9.0,-100.00,WNW,287,1.0,5.0,86,0.00,,,0.21,0.700000,,2013-03-16 15:12:00,
2013-03-16 07:22:00,12.0,9.0,-100.00,WNW,287,1.0,5.0,86,0.00,,,0.21,0.700000,,2013-03-16 15:22:00,
2013-03-16 07:33:00,12.0,9.0,-100.00,WNW,287,1.0,5.0,86,0.00,,,0.21,0.700000,,2013-03-16 15:33:00,
2013-03-16 07:42:00,12.0,9.0,-100.00,WNW,287,1.0,5.0,86,0.00,,,0.21,0.700000,,2013-03-16 15:42:00,
2013-03-16 08:03:00,12.0,9.0,-100.00,SE,128,5.0,6.0,86,0.00,,,0.21,0.700000,,2013-03-16 16:03:00,
2013-03-16 08:12:00,12.0,9.0,-100.00,SE,128,5.0,6.0,86,0.00,,,0.21,0.700000,,2013-03-16 16:12:00,
2013-03-16 08:22:00,12.0,9.0,-100.00,SE,128,5.0,6.0,86,0.00,,,0.21,0.700000,,2013-03-16 16:22:00,
2013-03-16 08:33:00,12.0,9.0,-100.00,SE,128,5.0,6.0,86,0.00,,,0.21,0.700000,,2013-03-16 16:33:00,
2013-03-16 08:42:00,12.0,9.0,-100.00,SE,128,5.0,6.0,86,0.00,,,0.21,0.700000,,2013-03-16 16:42:00,
2013-03-16 09:03:00,13.0,10.0,-100.00,SSW,207,0.0,6.0,87,0.00,,,0.21,8.600000,,2013-03-16 17:03:00,
2013-03-16 09:12:00,13.0,10.0,-100.00,SSW,207,0.0,6.0,87,0.00,,,0.21,8.600000,,2013-03-16 17:12:00,
2013-03-16 09:22:00,13.0,10.0,-100.00,SSW,207,0.0,6.0,87,0.00,,,0.21,8.600000,,2013-03-16 17:22:00,
2013-03-16 09:32:00,13.0,10.0,-100.00,SSW,207,0.0,6.0,87,0.00,,,0.21,8.600000,,2013-03-16 17:32:00,
2013-03-16 09:42:00,13.0,10.0,-100.00,SSW,207,0.0,6.0,87,0.00,,,0.21,8.600000,,2013-03-16 17:42:00,
2013-03-16 10:02:00,16.0,12.0,-100.00,SE,134,6.0,0.0,84,0.00,,,0.21,108.000000,,2013-03-16 18:02:00,
2013-03-16 10:13:00,16.0,12.0,-100.00,SE,134,6.0,0.0,84,0.00,,,0.21,108.000000,,2013-03-16 18:13:00,
2013-03-16 10:22:00,16.0,12.0,-100.00,SE,134,6.0,0.0,84,0.00,,,0.21,108.000000,,2013-03-16 18:22:00,
2013-03-16 10:32:00,16.0,12.0,-100.00,SE,134,6.0,0.0,84,0.00,,,0.21,108.000000,,2013-03-16 18:32:00,
2013-03-16 10:42:00,16.0,12.0,-100.00,SE,134,6.0,0.0,84,0.00,,,0.21,108.000000,,2013-03-16 18:42:00,
2013-03-16 11:02:00,18.0,14.0,-100.00,ESE,114,4.0,7.0,84,0.00,,,0.21,243.199997,,2013-03-16 19:02:00,
2013-03-16 11:12:00,18.0,14.0,-100.00,ESE,114,4.0,7.0,84,0.00,,,0.21,243.199997,,2013-03-16 19:12:00,
2013-03-16 11:22:00,18.0,14.0,-100.00,ESE,114,4.0,7.0,84,0.00,,,0.21,243.199997,,2013-03-16 19:22:00,
2013-03-16 11:32:00,18.0,14.0,-100.00,ESE,114,4.0,7.0,84,0.00,,,0.21,243.199997,,2013-03-16 19:32:00,
2013-03-16 11:42:00,18.0,14.0,-100.00,ESE,114,4.0,7.0,84,0.00,,,0.21,243.199997,,2013-03-16 19:42:00,
2013-03-16 12:02:00,25.0,21.0,-100.00,East,80,2.0,9.0,85,0.00,,,0.21,360.399994,,2013-03-16 20:02:00,
2013-03-16 12:12:00,25.0,21.0,-100.00,East,80,2.0,9.0,85,0.00,,,0.21,360.399994,,2013-03-16 20:12:00,
2013-03-16 12:21:00,25.0,21.0,-100.00,East,80,2.0,9.0,85,0.00,,,0.21,360.399994,,2013-03-16 20:21:00,
2013-03-16 12:32:00,25.0,21.0,-100.00,East,80,2.0,9.0,85,0.00,,,0.21,360.399994,,2013-03-16 20:32:00,
2013-03-16 12:42:00,25.0,21.0,-100.00,East,80,2.0,9.0,85,0.00,,,0.21,360.399994,,2013-03-16 20:42:00,
2013-03-16 13:02:00,26.0,22.0,-100.00,South,186,1.0,4.0,84,0.01,,,0.22,449.399994,,2013-03-16 21:02:00,
2013-03-16 13:12:00,26.0,22.0,-100.00,South,186,1.0,4.0,84,0.01,,,0.22,449.399994,,2013-03-16 21:12:00,
2013-03-16 13:22:00,26.0,22.0,-100.00,South,186,1.0,4.0,84,0.01,,,0.22,449.399994,,2013-03-16 21:22:00,
2013-03-16 13:32:00,26.0,22.0,-100.00,South,186,1.0,4.0,84,0.01,,,0.22,449.399994,,2013-03-16 21:32:00,
2013-03-16 13:42:00,26.0,22.0,-100.00,South,186,1.0,4.0,84,0.01,,,0.22,449.399994,,2013-03-16 21:42:00,
2013-03-16 14:03:00,18.0,13.0,-100.00,SSE,166,10.0,10.0,81,0.01,,,0.23,502.799988,,2013-03-16 22:03:00,
2013-03-16 14:12:00,18.0,13.0,-100.00,SSE,166,10.0,10.0,81,0.01,,,0.23,502.799988,,2013-03-16 22:12:00,
2013-03-16 14:22:00,18.0,13.0,-100.00,SSE,166,10.0,10.0,81,0.01,,,0.23,502.799988,,2013-03-16 22:22:00,
2013-03-16 14:32:00,18.0,13.0,-100.00,SSE,166,10.0,10.0,81,0.01,,,0.23,502.799988,,2013-03-16 22:32:00,
2013-03-16 14:42:00,18.0,13.0,-100.00,SSE,166,10.0,10.0,81,0.01,,,0.23,502.799988,,2013-03-16 22:42:00,
2013-03-16 15:02:00,19.0,15.0,-100.00,West,272,5.0,13.0,82,0.00,,,0.19,516.200012,,2013-03-16 23:02:00,
2013-03-16 15:12:00,19.0,15.0,-100.00,West,272,5.0,13.0,82,0.00,,,0.19,516.200012,,2013-03-16 23:12:00,
2013-03-16 15:22:00,19.0,15.0,-100.00,West,272,5.0,13.0,82,0.00,,,0.19,516.200012,,2013-03-16 23:22:00,
2013-03-16 15:32:00,19.0,15.0,-100.00,West,272,5.0,13.0,82,0.00,,,0.19,516.200012,,2013-03-16 23:32:00,
2013-03-16 15:42:00,19.0,15.0,-100.00,West,272,5.0,13.0,82,0.00,,,0.19,516.200012,,2013-03-16 23:42:00,
2013-03-16 16:01:00,20.0,15.0,-100.00,SW,223,2.0,11.0,82,0.00,,,0.14,478.100006,,2013-03-17 00:01:00,
2013-03-16 16:12:00,20.0,15.0,-100.00,SW,223,2.0,11.0,82,0.00,,,0.14,478.100006,,2013-03-17 00:12:00,
2013-03-16 16:22:00,20.0,15.0,-100.00,SW,223,2.0,11.0,82,0.00,,,0.14,478.100006,,2013-03-17 00:22:00,
2013-03-16 16:32:00,20.0,15.0,-100.00,SW,223,2.0,11.0,82,0.00,,,0.14,478.100006,,2013-03-17 00:32:00,
2013-03-16 16:42:00,20.0,15.0,-100.00,SW,223,2.0,11.0,82,0.00,,,0.14,478.100006,,2013-03-17 00:42:00,
2013-03-16 17:02:00,22.0,18.0,-100.00,SW,219,2.0,7.0,83,0.00,,,0.08,417.200012,,2013-03-17 01:02:00,
2013-03-16 17:12:00,22.0,18.0,-100.00,SW,219,2.0,7.0,83,0.00,,,0.08,417.200012,,2013-03-17 01:12:00,
2013-03-16 17:22:00,22.0,18.0,-100.00,SW,219,2.0,7.0,83,0.00,,,0.08,417.200012,,2013-03-17 01:22:00,
2013-03-16 17:32:00,22.0,18.0,-100.00,SW,219,2.0,7.0,83,0.00,,,0.08,417.200012,,2013-03-17 01:32:00,
2013-03-16 17:42:00,22.0,18.0,-100.00,SW,219,2.0,7.0,83,0.00,,,0.08,417.200012,,2013-03-17 01:42:00,
2013-03-16 18:02:00,19.0,14.0,-100.00,West,274,5.0,5.0,81,0.00,,,0.04,330.200012,,2013-03-17 02:02:00,
2013-03-16 18:12:00,19.0,14.0,-100.00,West,274,5.0,5.0,81,0.00,,,0.04,330.200012,,2013-03-17 02:12:00,
2013-03-16 18:22:00,19.0,14.0,-100.00,West,274,5.0,5.0,81,0.00,,,0.04,330.200012,,2013-03-17 02:22:00,
2013-03-16 18:32:00,19.0,14.0,-100.00,West,274,5.0,5.0,81,0.00,,,0.04,330.200012,,2013-03-17 02:32:00,
2013-03-16 18:42:00,19.0,14.0,-100.00,West,274,5.0,5.0,81,0.00,,,0.04,330.200012,,2013-03-17 02:42:00,
2013-03-16 19:02:00,15.0,11.0,-100.00,WSW,244,4.0,6.0,83,0.00,,,0.02,182.600006,,2013-03-17 03:02:00,
2013-03-16 19:12:00,15.0,11.0,-100.00,WSW,244,4.0,6.0,83,0.00,,,0.02,182.600006,,2013-03-17 03:12:00,
2013-03-16 19:22:00,15.0,11.0,-100.00,WSW,244,4.0,6.0,83,0.00,,,0.02,182.600006,,2013-03-17 03:22:00,
2013-03-16 19:33:00,15.0,11.0,-100.00,WSW,244,4.0,6.0,83,0.00,,,0.02,182.600006,,2013-03-17 03:33:00,
2013-03-16 19:42:00,15.0,11.0,-100.00,WSW,244,4.0,6.0,83,0.00,,,0.02,182.600006,,2013-03-17 03:42:00,
2013-03-16 20:03:00,13.0,9.0,-100.00,WNW,294,4.0,5.0,83,0.00,,,0.02,73.400002,,2013-03-17 04:03:00,
2013-03-16 20:12:00,13.0,9.0,-100.00,WNW,294,4.0,5.0,83,0.00,,,0.02,73.400002,,2013-03-17 04:12:00,
2013-03-16 20:23:00,13.0,9.0,-100.00,WNW,294,4.0,5.0,83,0.00,,,0.02,73.400002,,2013-03-17 04:23:00,
2013-03-16 20:32:00,13.0,9.0,-100.00,WNW,294,4.0,5.0,83,0.00,,,0.02,73.400002,,2013-03-17 04:32:00,
2013-03-16 20:42:00,13.0,9.0,-100.00,WNW,294,4.0,5.0,83,0.00,,,0.02,73.400002,,2013-03-17 04:42:00,
2013-03-16 21:02:00,11.0,7.0,-100.00,West,267,4.0,6.0,84,0.00,,,0.02,5.100000,,2013-03-17 05:02:00,
2013-03-16 21:12:00,11.0,7.0,-100.00,West,267,4.0,6.0,84,0.00,,,0.02,5.100000,,2013-03-17 05:12:00,
2013-03-16 21:22:00,11.0,7.0,-100.00,West,267,4.0,6.0,84,0.00,,,0.02,5.100000,,2013-03-17 05:22:00,
2013-03-16 21:32:00,11.0,7.0,-100.00,West,267,4.0,6.0,84,0.00,,,0.02,5.100000,,2013-03-17 05:32:00,
2013-03-16 21:42:00,11.0,7.0,-100.00,West,267,4.0,6.0,84,0.00,,,0.02,5.100000,,2013-03-17 05:42:00,
2013-03-16 22:02:00,11.0,7.0,-100.00,West,270,5.0,7.0,84,0.00,,,0.02,0.700000,,2013-03-17 06:02:00,
2013-03-16 22:12:00,11.0,7.0,-100.00,West,270,5.0,7.0,84,0.00,,,0.02,0.700000,,2013-03-17 06:12:00,
2013-03-16 22:22:00,11.0,7.0,-100.00,West,270,5.0,7.0,84,0.00,,,0.02,0.700000,,2013-03-17 06:22:00,
2013-03-16 22:32:00,11.0,7.0,-100.00,West,270,5.0,7.0,84,0.00,,,0.02,0.700000,,2013-03-17 06:32:00,
2013-03-16 22:42:00,11.0,7.0,-100.00,West,270,5.0,7.0,84,0.00,,,0.02,0.700000,,2013-03-17 06:42:00,
2013-03-16 23:02:00,11.0,7.0,-100.00,West,281,7.0,7.0,84,0.00,,,0.02,0.700000,,2013-03-17 07:02:00,
2013-03-16 23:12:00,11.0,7.0,-100.00,West,281,7.0,7.0,84,0.00,,,0.02,0.700000,,2013-03-17 07:12:00,
2013-03-16 23:22:00,11.0,7.0,-100.00,West,281,7.0,7.0,84,0.00,,,0.02,0.700000,,2013-03-17 07:22:00,
2013-03-16 23:32:00,11.0,7.0,-100.00,West,281,7.0,7.0,84,0.00,,,0.02,0.700000,,2013-03-17 07:32:00,
2013-03-16 23:42:00,11.0,7.0,-100.00,West,281,7.0,7.0,84,0.00,,,0.02,0.700000,,2013-03-17 07:42:00,